Time;durP1;ratioP1;P1;durP2;ratioP2;P2;SDS_P1;SDS_P2;PMS_P1;PMS_P2;Temp;Humidity;BMP_temperature;BMP_pressure;BME280_temperature;BME280_humidity;BME280_pressure;Samples;Min_cycle;Max_cycle;Signal;HPM_P1;HPM_P2
2022/08/31 00:05:08;;;;;;;12.77;6.43;;;;;;;23.54;42.78;100039.06;4953306;28;20538;-88
2022/08/31 00:07:35;;;;;;;15.07;6.80;;;;;;;23.44;42.91;100033.25;4949618;28;20462;-88
2022/08/31 00:10:17;;;;;;;10.32;6.75;;;;;;;23.48;43.29;100037.19;4971532;28;20061;-88
2022/08/31 00:12:46;;;;;;;13.90;7.00;;;;;;;23.57;43.10;100032.38;4970653;28;20056;-88
2022/08/31 00:15:16;;;;;;;11.32;7.10;;;;;;;23.60;42.70;100029.22;4993815;28;20049;-88
2022/08/31 00:17:43;;;;;;;14.30;6.57;;;;;;;23.64;42.56;100033.19;4999100;28;20053;-88
2022/08/31 00:20:12;;;;;;;13.60;6.65;;;;;;;23.59;43.09;100028.41;4952735;28;20050;-88
2022/08/31 00:22:59;;;;;;;12.43;7.38;;;;;;;23.61;43.02;100029.00;4952789;28;20050;-88
2022/08/31 00:25:26;;;;;;;15.98;6.55;;;;;;;23.62;42.91;100029.84;4952823;28;20046;-89
2022/08/31 00:36:25;;;;;;;12.27;6.95;;;;;;;23.45;43.08;100029.50;4929783;28;20196;-88
2022/08/31 00:38:53;;;;;;;11.02;6.03;;;;;;;23.53;43.09;100025.69;4987558;28;20054;-88
2022/08/31 00:41:23;;;;;;;11.85;6.70;;;;;;;23.49;43.14;100028.03;4995771;28;20042;-88
2022/08/31 00:43:59;;;;;;;13.05;7.13;;;;;;;23.45;43.28;100029.50;4967892;28;20039;-88
2022/08/31 00:46:32;;;;;;;14.60;7.25;;;;;;;23.48;43.27;100020.09;4950195;28;20045;-88
2022/08/31 00:49:21;;;;;;;12.48;6.63;;;;;;;23.35;43.32;100021.00;4970624;28;20046;-88
2022/08/31 00:51:53;;;;;;;12.07;6.97;;;;;;;23.49;43.34;100033.44;4998708;28;20038;-88
2022/08/31 00:54:24;;;;;;;14.40;7.40;;;;;;;23.46;43.18;100014.91;4953191;28;20043;-89
2022/08/31 00:56:51;;;;;;;12.18;6.55;;;;;;;23.50;43.15;100013.41;4987017;28;20038;-88
2022/08/31 00:59:19;;;;;;;20.10;7.32;;;;;;;23.54;43.20;100017.38;4998469;28;20038;-88
2022/08/31 01:01:46;;;;;;;11.55;6.72;;;;;;;23.53;43.19;100012.97;4964281;28;20054;-88
2022/08/31 01:04:13;;;;;;;13.00;6.95;;;;;;;23.59;42.98;100009.41;4969980;28;20042;-88
2022/08/31 01:06:40;;;;;;;13.52;6.80;;;;;;;23.55;43.30;100023.63;4981970;28;20058;-88
2022/08/31 01:09:07;;;;;;;15.27;7.40;;;;;;;23.53;43.53;100028.41;4965012;28;20132;-87
2022/08/31 01:11:36;;;;;;;12.55;6.57;;;;;;;23.51;43.50;100033.22;4984190;28;20072;-87
2022/08/31 01:14:03;;;;;;;10.85;6.80;;;;;;;23.49;44.02;100036.16;4971623;28;20066;-89
2022/08/31 01:16:34;;;;;;;11.07;6.70;;;;;;;23.43;44.23;100031.56;4983408;28;20441;-88
2022/08/31 01:19:04;;;;;;;14.07;7.15;;;;;;;23.46;44.12;100044.72;4997269;28;20042;-88
2022/08/31 01:21:38;;;;;;;12.38;7.05;;;;;;;23.32;44.60;100051.22;4953349;28;20494;-88
2022/08/31 01:24:07;;;;;;;16.15;6.20;;;;;;;23.42;44.12;100043.47;4953220;28;20053;-89
2022/08/31 01:26:34;;;;;;;16.33;8.35;;;;;;;23.46;43.49;100035.75;4965264;28;20141;-89
2022/08/31 01:29:04;;;;;;;10.57;7.15;;;;;;;23.48;43.25;100033.66;4953911;28;20039;-88
2022/08/31 01:31:42;;;;;;;15.73;8.18;;;;;;;23.43;43.49;100045.13;4967183;28;20503;-89
2022/08/31 01:38:38;;;;;;;18.98;7.20;;;;;;;23.32;44.63;100051.22;4960719;28;20521;-88
2022/08/31 01:41:05;;;;;;;12.73;7.03;;;;;;;23.35;44.31;100058.94;4930143;28;20046;-89
2022/08/31 01:43:34;;;;;;;13.15;6.68;;;;;;;23.36;44.32;100052.47;4950560;28;20074;-88
2022/08/31 01:46:01;;;;;;;16.92;6.82;;;;;;;23.35;44.14;100054.34;4985526;28;20432;-88
2022/08/31 01:48:30;;;;;;;15.35;7.05;;;;;;;23.38;44.15;100050.38;4970953;28;20042;-88
2022/08/31 01:50:57;;;;;;;13.23;6.95;;;;;;;23.32;44.56;100046.63;4984142;28;20053;-89
2022/08/31 01:53:24;;;;;;;11.45;6.45;;;;;;;23.27;45.25;100046.44;4966840;28;20042;-90
2022/08/31 01:55:51;;;;;;;10.43;7.00;;;;;;;23.27;44.83;100054.56;4967305;28;20133;-90
2022/08/31 01:58:17;;;;;;;12.80;6.35;;;;;;;23.19;45.30;100050.22;4968392;28;20038;-89
2022/08/31 02:01:07;;;;;;;13.35;6.57;;;;;;;23.14;45.89;100052.75;4947692;28;20049;-89
2022/08/31 02:03:54;;;;;;;12.65;6.65;;;;;;;23.05;46.44;100054.03;4951383;28;20061;-90
2022/08/31 02:06:23;;;;;;;12.07;6.53;;;;;;;23.05;46.12;100051.31;4996501;28;20047;-88
2022/08/31 02:08:50;;;;;;;12.30;6.63;;;;;;;23.02;46.65;100062.56;4984775;28;20540;-88
2022/08/31 02:11:17;;;;;;;11.30;6.50;;;;;;;23.00;46.73;100058.41;4945378;28;20491;-88
2022/08/31 02:13:44;;;;;;;11.73;7.10;;;;;;;22.96;47.28;100053.38;4937130;28;20433;-88
2022/08/31 02:16:14;;;;;;;11.27;6.50;;;;;;;22.91;47.06;100052.34;4960048;28;20050;-89
2022/08/31 02:18:41;;;;;;;8.68;5.78;;;;;;;22.88;47.15;100050.91;4983178;28;20055;-90
2022/08/31 02:21:12;;;;;;;12.63;7.28;;;;;;;22.83;47.34;100042.56;4949526;28;20517;-89
2022/08/31 02:23:40;;;;;;;14.23;6.82;;;;;;;22.84;47.11;100056.94;4985461;28;20042;-90
2022/08/31 02:26:07;;;;;;;11.93;7.00;;;;;;;22.81;47.36;100060.91;4968705;28;20043;-89
2022/08/31 02:28:35;;;;;;;10.50;6.15;;;;;;;22.84;47.57;100062.34;4981655;28;20085;-90
2022/08/31 02:31:02;;;;;;;13.38;6.75;;;;;;;22.83;47.28;100063.41;4968280;28;20100;-89
2022/08/31 02:33:36;;;;;;;12.05;6.78;;;;;;;22.82;47.01;100054.47;4967303;28;20074;-89
2022/08/31 02:36:03;;;;;;;8.60;6.32;;;;;;;22.81;47.24;100060.06;4983293;28;20042;-89
2022/08/31 02:38:32;;;;;;;10.88;6.18;;;;;;;22.76;47.44;100061.53;4983422;28;20375;-89
2022/08/31 02:41:01;;;;;;;9.68;6.53;;;;;;;22.74;48.56;100070.91;4982794;28;20466;-89
2022/08/31 02:43:27;;;;;;;10.45;6.97;;;;;;;22.63;49.20;100074.25;4985430;28;20050;-90
2022/08/31 02:45:54;;;;;;;19.75;7.75;;;;;;;22.59;49.68;100078.41;4968980;28;20050;-89
2022/08/31 02:48:26;;;;;;;12.43;7.70;;;;;;;22.60;50.12;100075.50;4951909;28;20047;-88
2022/08/31 02:50:53;;;;;;;15.00;7.20;;;;;;;22.49;50.37;100073.41;4986084;28;20042;-90
2022/08/31 02:53:21;;;;;;;11.90;6.65;;;;;;;22.48;50.03;100069.88;4982709;28;20065;-89
2022/08/31 02:55:48;;;;;;;11.30;6.50;;;;;;;22.49;49.24;100068.84;4952367;28;20145;-89
2022/08/31 02:58:15;;;;;;;14.57;6.30;;;;;;;22.47;49.17;100067.38;4984772;28;20039;-88
2022/08/31 03:00:49;;;;;;;12.10;6.18;;;;;;;22.45;48.93;100064.03;4936640;28;20054;-89
2022/08/31 03:03:16;;;;;;;12.07;6.65;;;;;;;22.49;48.51;100060.72;4950017;28;20073;-88
2022/08/31 03:05:43;;;;;;;10.18;6.30;;;;;;;22.53;48.85;100063.84;4984069;28;20470;-89
2022/08/31 03:08:10;;;;;;;12.85;7.15;;;;;;;22.42;49.57;100064.47;4969447;28;20046;-89
2022/08/31 03:10:37;;;;;;;11.52;7.05;;;;;;;22.44;49.62;100070.47;4969792;28;20490;-89
2022/08/31 03:22:27;;;;;;;8.00;5.78;;;;;;;22.33;49.86;100058.41;4977991;28;20073;-89
2022/08/31 03:29:37;;;;;;;10.95;6.70;;;;;;;22.27;50.04;100061.97;4969071;28;20038;-88
2022/08/31 03:32:26;;;;;;;11.55;6.55;;;;;;;22.18;49.39;100060.44;4943064;28;20061;-89
2022/08/31 03:34:59;;;;;;;10.45;6.00;;;;;;;22.33;48.69;100053.00;4972458;28;20050;-90
2022/08/31 03:37:26;;;;;;;9.90;6.25;;;;;;;22.32;49.05;100048.66;4985183;28;20057;-89
2022/08/31 03:39:56;;;;;;;15.20;6.78;;;;;;;22.31;49.17;100055.94;4968020;28;20493;-89
2022/08/31 03:42:24;;;;;;;11.35;6.30;;;;;;;22.28;49.62;100053.63;4948530;28;20053;-90
2022/08/31 03:44:53;;;;;;;9.23;6.50;;;;;;;22.27;49.74;100046.56;4973117;28;20045;-88
2022/08/31 03:47:25;;;;;;;10.65;6.55;;;;;;;22.24;50.10;100057.78;4992059;28;20477;-89
2022/08/31 03:49:54;;;;;;;8.75;6.85;;;;;;;22.24;49.82;100056.97;4969953;28;20546;-89
2022/08/31 03:52:24;;;;;;;9.35;6.30;;;;;;;22.25;49.64;100069.44;4984861;28;20049;-88
2022/08/31 03:54:59;;;;;;;10.63;7.07;;;;;;;22.29;49.56;100068.00;4953875;28;20127;-89
2022/08/31 04:01:56;;;;;;;15.05;7.43;;;;;;;22.18;50.37;100068.56;4962263;28;20510;-89
2022/08/31 04:04:41;;;;;;;8.50;6.40;;;;;;;22.16;49.84;100076.91;4969927;28;20041;-91
2022/08/31 04:07:27;;;;;;;11.25;6.55;;;;;;;22.17;50.21;100078.56;4968665;28;20054;-87
2022/08/31 04:19:54;;;;;;;12.00;6.25;;;;;;;22.08;50.40;100080.63;4894910;28;20518;-90
2022/08/31 04:26:50;;;;;;;10.15;6.00;;;;;;;22.03;50.79;100085.81;4959817;28;20511;-89
2022/08/31 04:29:18;;;;;;;9.35;6.13;;;;;;;22.06;50.63;100079.16;4986559;28;20069;-92
2022/08/31 04:31:46;;;;;;;14.82;6.82;;;;;;;21.99;51.24;100083.72;4984011;28;20050;-87
2022/08/31 04:34:13;;;;;;;11.00;6.50;;;;;;;22.02;51.33;100084.13;4965202;28;20495;-88
2022/08/31 04:36:40;;;;;;;13.38;6.80;;;;;;;22.00;51.42;100079.97;4974630;28;20482;-87
2022/08/31 04:39:07;;;;;;;13.77;7.03;;;;;;;22.02;51.30;100088.72;4961475;28;20040;-88
2022/08/31 04:41:36;;;;;;;13.98;6.15;;;;;;;22.01;51.65;100090.59;4939026;28;20126;-88
2022/08/31 04:44:04;;;;;;;8.55;6.38;;;;;;;22.07;51.07;100094.34;4982014;28;20056;-88
2022/08/31 04:51:05;;;;;;;9.68;5.97;;;;;;;21.97;51.61;100099.31;4959922;28;20031;-88
2022/08/31 04:53:32;;;;;;;8.93;6.25;;;;;;;22.02;51.30;100104.94;4968144;28;20043;-88
2022/08/31 04:56:06;;;;;;;9.52;6.18;;;;;;;21.90;51.68;100107.38;4985932;28;20051;-88
2022/08/31 04:58:33;;;;;;;12.52;6.55;;;;;;;21.98;51.71;100109.06;4983149;28;20050;-87
2022/08/31 05:01:00;;;;;;;10.32;6.65;;;;;;;21.91;51.92;100100.13;4996590;28;20054;-88
2022/08/31 05:03:51;;;;;;;8.20;6.13;;;;;;;21.92;52.20;100102.63;4966397;28;20047;-87
2022/08/31 05:06:20;;;;;;;8.60;6.40;;;;;;;21.88;52.37;100113.03;4967386;28;20050;-88
2022/08/31 05:08:50;;;;;;;10.02;6.30;;;;;;;21.93;52.31;100111.56;4981015;28;20054;-88
2022/08/31 05:11:18;;;;;;;12.93;7.13;;;;;;;21.91;52.32;100108.25;4975164;28;20406;-87
2022/08/31 05:13:51;;;;;;;18.77;6.93;;;;;;;21.89;52.30;100116.56;4985563;28;20042;-87
2022/08/31 05:16:19;;;;;;;11.90;6.47;;;;;;;21.95;51.88;100115.72;4935933;28;20054;-88
2022/08/31 05:19:17;;;;;;;13.45;6.97;;;;;;;21.67;52.59;100118.53;5000690;28;20050;-88
2022/08/31 05:21:44;;;;;;;13.35;7.43;;;;;;;21.92;52.08;100124.25;4957780;28;20093;-87
2022/08/31 05:24:14;;;;;;;11.95;6.28;;;;;;;21.88;52.78;100125.72;4966793;28;20046;-88
2022/08/31 05:26:46;;;;;;;14.30;6.43;;;;;;;21.87;53.17;100126.72;4984420;28;20054;-88
2022/08/31 05:29:15;;;;;;;;;;;;;;;21.41;54.82;100130.88;4976315;28;20140;-88
2022/08/31 05:31:43;;;;;;;8.95;6.20;;;;;;;21.82;53.34;100124.63;4969379;28;20392;-87
2022/08/31 05:34:16;;;;;;;11.63;7.22;;;;;;;21.83;53.43;100134.41;4982887;28;20053;-88
2022/08/31 05:36:48;;;;;;;9.55;6.35;;;;;;;21.88;53.46;100139.22;4986092;28;20038;-87
2022/08/31 05:39:15;;;;;;;11.27;6.10;;;;;;;21.87;53.12;100138.38;4966966;28;20050;-88
2022/08/31 05:41:44;;;;;;;8.73;6.10;;;;;;;21.89;53.29;100144.41;4962994;28;20058;-88
2022/08/31 05:44:11;;;;;;;10.50;6.65;;;;;;;21.88;53.95;100153.56;4965298;28;20039;-87
2022/08/31 05:46:38;;;;;;;14.65;7.43;;;;;;;21.88;53.90;100152.75;4951905;28;20057;-88
2022/08/31 05:49:07;;;;;;;10.32;6.95;;;;;;;21.90;53.46;100147.94;4965061;28;20046;-89
2022/08/31 05:51:37;;;;;;;11.95;6.47;;;;;;;21.91;53.79;100148.81;4965682;28;20455;-87
2022/08/31 05:54:05;;;;;;;10.68;6.75;;;;;;;21.86;54.63;100152.94;4954051;28;20498;-87
2022/08/31 05:56:33;;;;;;;10.15;6.70;;;;;;;21.84;54.40;100152.28;4984097;28;20065;-88
2022/08/31 05:59:00;;;;;;;9.00;7.00;;;;;;;21.84;54.76;100151.47;4969431;28;20121;-88
2022/08/31 06:01:33;;;;;;;17.92;8.57;;;;;;;21.88;52.82;100152.75;4984250;28;20575;-87
2022/08/31 06:04:09;;;;;;;14.05;7.40;;;;;;;21.94;52.38;100153.81;4983485;28;20061;-88
2022/08/31 06:06:37;;;;;;;13.63;7.88;;;;;;;22.02;51.66;100159.03;5000544;28;20046;-88
2022/08/31 06:09:05;;;;;;;11.85;7.60;;;;;;;21.99;51.29;100162.97;4999051;28;20630;-91
2022/08/31 06:11:33;;;;;;;12.23;7.65;;;;;;;22.05;51.26;100161.31;4950911;28;20053;-90
2022/08/31 06:14:04;;;;;;;12.88;7.45;;;;;;;22.04;51.05;100160.50;4980402;28;20399;-90
2022/08/31 06:16:32;;;;;;;15.40;8.07;;;;;;;21.88;51.93;100163.56;4961979;28;20057;-90
2022/08/31 06:19:02;;;;;;;10.77;6.75;;;;;;;22.01;51.25;100158.19;4965761;28;20081;-91
2022/08/31 06:21:32;;;;;;;11.95;7.97;;;;;;;22.00;50.97;100158.38;4980184;28;20062;-91
2022/08/31 06:24:00;;;;;;;15.63;8.57;;;;;;;22.03;51.26;100155.28;4960419;28;20058;-90
2022/08/31 06:26:30;;;;;;;14.63;8.27;;;;;;;22.02;51.31;100159.03;4982908;28;20592;-91
2022/08/31 06:29:02;;;;;;;15.57;8.65;;;;;;;21.96;51.37;100166.09;4980908;28;20046;-92
2022/08/31 06:31:33;;;;;;;10.80;7.45;;;;;;;21.99;51.36;100162.97;4983920;28;20554;-91
2022/08/31 06:34:02;;;;;;;17.67;8.38;;;;;;;22.08;51.78;100163.59;4962176;28;20502;-91
2022/08/31 06:36:47;;;;;;;14.38;8.20;;;;;;;22.09;52.27;100162.59;4967387;28;20050;-90
2022/08/31 06:39:40;;;;;;;21.52;8.23;;;;;;;22.10;52.14;100165.06;4936761;28;20113;-91
2022/08/31 06:42:35;;;;;;;10.85;7.55;;;;;;;22.05;51.49;100164.84;4878843;28;20225;-89
2022/08/31 06:45:03;;;;;;;15.55;8.38;;;;;;;22.08;51.21;100164.47;4952328;28;20494;-91
2022/08/31 06:48:00;;;;;;;14.80;8.30;;;;;;;22.06;51.81;100157.59;4905102;28;20047;-91
2022/08/31 06:50:27;;;;;;;16.60;8.73;;;;;;;22.10;51.45;100156.97;4980410;28;20039;-92
2022/08/31 06:52:57;;;;;;;10.00;7.68;;;;;;;22.14;51.48;100160.09;4953179;28;20059;-91
2022/08/31 06:56:04;;;;;;;14.30;7.75;;;;;;;22.02;51.63;100156.31;4931827;28;20042;-90
2022/08/31 06:59:04;;;;;;;12.05;7.93;;;;;;;22.11;51.37;100152.41;4912027;28;20359;-92
2022/08/31 07:02:10;;;;;;;11.45;8.10;;;;;;;21.93;51.73;100157.53;4951142;28;20046;-91
2022/08/31 07:04:38;;;;;;;11.20;7.78;;;;;;;22.02;51.17;100153.63;4939163;28;20050;-91
2022/08/31 07:07:06;;;;;;;13.07;8.65;;;;;;;22.03;51.12;100157.97;4972127;28;20069;-91
2022/08/31 07:09:33;;;;;;;11.13;7.55;;;;;;;22.04;51.12;100157.78;4957957;28;20046;-91
2022/08/31 07:12:00;;;;;;;13.80;8.20;;;;;;;22.04;50.92;100162.38;4971985;28;20100;-91
2022/08/31 07:14:27;;;;;;;13.30;8.25;;;;;;;22.03;50.99;100161.53;4987914;28;20057;-91
2022/08/31 07:16:57;;;;;;;13.50;7.97;;;;;;;22.10;51.11;100166.94;4951981;28;20046;-91
2022/08/31 07:19:25;;;;;;;16.27;8.40;;;;;;;22.00;51.39;100159.22;4987310;28;20130;-91
2022/08/31 07:21:55;;;;;;;12.18;7.72;;;;;;;22.02;51.27;100159.84;4964177;28;20499;-92
2022/08/31 07:24:28;;;;;;;13.05;8.80;;;;;;;22.00;51.63;100172.72;4985211;28;20052;-91
2022/08/31 07:27:03;;;;;;;12.43;8.10;;;;;;;21.97;51.52;100177.72;5001759;28;20082;-91
2022/08/31 07:29:39;;;;;;;13.32;9.02;;;;;;;22.02;51.20;100169.84;4968659;28;20046;-91
2022/08/31 07:32:11;;;;;;;12.40;7.97;;;;;;;22.08;51.29;100172.59;5015975;28;20046;-91
2022/08/31 07:34:39;;;;;;;12.68;9.15;;;;;;;22.10;51.25;100172.34;4984338;28;20410;-91
2022/08/31 07:43:22;;;;;;;14.40;8.68;;;;;;;22.26;51.20;100182.00;4948472;28;20558;-91
2022/08/31 07:46:20;;;;;;;12.23;8.50;;;;;;;22.00;52.11;100191.66;4954915;28;20430;-91
2022/08/31 07:48:50;;;;;;;14.02;8.60;;;;;;;22.14;51.30;100183.63;4932544;28;21148;-90
2022/08/31 07:51:35;;;;;;;16.23;8.68;;;;;;;22.25;51.18;100186.59;4958198;28;20057;-91
2022/08/31 07:54:26;;;;;;;14.50;9.10;;;;;;;22.32;50.83;100184.75;4963226;28;20471;-90
2022/08/31 07:57:08;;;;;;;13.60;8.32;;;;;;;22.22;51.11;100191.59;4932903;28;20121;-90
2022/08/31 07:59:38;;;;;;;15.60;8.43;;;;;;;22.15;51.39;100185.28;4958447;28;20085;-91
2022/08/31 08:02:06;;;;;;;13.20;8.20;;;;;;;22.19;51.10;100190.13;4965128;28;20098;-90
2022/08/31 08:04:42;;;;;;;13.23;8.98;;;;;;;22.14;51.48;100189.03;4969989;28;20061;-92
2022/08/31 08:07:32;;;;;;;11.57;8.65;;;;;;;22.17;51.69;100196.72;4942997;28;20114;-91
2022/08/31 08:10:12;;;;;;;15.57;8.52;;;;;;;22.10;51.51;100194.00;4941249;28;20050;-92
2022/08/31 08:13:02;;;;;;;17.05;8.20;;;;;;;22.01;51.69;100197.94;4953519;28;20054;-91
2022/08/31 08:15:56;;;;;;;17.35;7.68;;;;;;;22.14;51.44;100195.28;4952390;28;20121;-91
2022/08/31 08:18:49;;;;;;;15.90;8.93;;;;;;;22.13;51.31;100190.88;4921253;28;20054;-91
2022/08/31 08:21:20;;;;;;;15.23;8.57;;;;;;;22.12;51.70;100186.53;4981933;28;20042;-91
2022/08/31 08:23:47;;;;;;;12.43;8.20;;;;;;;22.20;51.43;100199.06;4985340;28;20118;-90
2022/08/31 08:26:32;;;;;;;15.43;8.10;;;;;;;22.11;51.71;100201.09;4995048;28;20457;-91
2022/08/31 08:29:20;;;;;;;13.50;7.88;;;;;;;22.07;51.94;100205.22;4935916;28;20049;-91
2022/08/31 08:31:50;;;;;;;14.93;8.48;;;;;;;21.98;51.96;100207.28;4968976;28;20097;-91
2022/08/31 08:34:18;;;;;;;18.90;8.82;;;;;;;21.98;52.15;100209.13;5014898;28;20085;-91
2022/08/31 08:36:47;;;;;;;15.18;7.88;;;;;;;22.01;52.20;100216.84;4951056;28;20046;-91
2022/08/31 08:39:16;;;;;;;12.95;8.30;;;;;;;22.02;52.10;100211.22;4952193;28;20122;-91
2022/08/31 08:41:58;;;;;;;11.68;7.90;;;;;;;22.08;52.14;100223.97;4949645;28;20132;-90
2022/08/31 08:44:27;;;;;;;12.98;8.43;;;;;;;22.20;51.50;100216.13;4937853;28;20447;-91
2022/08/31 08:46:56;;;;;;;16.35;8.38;;;;;;;22.19;51.45;100221.72;4985389;28;20050;-91
2022/08/31 08:49:39;;;;;;;13.75;7.68;;;;;;;22.14;51.53;100226.91;4999538;28;20539;-90
2022/08/31 08:52:12;;;;;;;14.18;7.85;;;;;;;22.21;51.72;100225.91;4981958;28;20047;-91
2022/08/31 08:54:40;;;;;;;11.07;7.93;;;;;;;22.20;51.42;100231.53;4984036;28;20609;-91
2022/08/31 08:57:16;;;;;;;11.88;7.95;;;;;;;22.25;51.67;100227.16;4962757;28;20109;-91
2022/08/31 08:59:48;;;;;;;12.32;7.78;;;;;;;22.38;51.42;100231.78;4975155;28;20398;-91
2022/08/31 09:02:42;;;;;;;16.35;8.60;;;;;;;22.16;51.79;100230.22;4983800;28;20042;-91
2022/08/31 09:05:33;;;;;;;14.05;8.48;;;;;;;22.27;51.87;100233.22;4965845;28;20043;-91
2022/08/31 09:08:22;;;;;;;11.77;7.60;;;;;;;22.33;51.37;100236.97;4892382;28;20133;-91
2022/08/31 09:11:18;;;;;;;12.55;8.23;;;;;;;22.39;51.21;100238.03;4972328;28;20051;-91
2022/08/31 09:13:48;;;;;;;16.73;8.13;;;;;;;22.54;50.95;100238.69;4931606;28;20069;-90
2022/08/31 09:16:27;;;;;;;9.65;7.30;;;;;;;22.54;51.16;100236.84;4985082;28;20542;-91
2022/08/31 09:19:02;;;;;;;11.25;8.02;;;;;;;22.52;51.18;100230.81;4949283;28;20564;-90
2022/08/31 09:21:33;;;;;;;14.80;8.45;;;;;;;22.60;50.98;100232.47;4978022;28;20121;-91
2022/08/31 09:24:09;;;;;;;21.60;8.55;;;;;;;22.60;50.71;100237.91;4997492;28;20517;-91
2022/08/31 09:27:19;;;;;;;11.75;7.72;;;;;;;22.50;50.83;100234.75;4982208;28;20073;-91
2022/08/31 09:29:54;;;;;;;13.48;8.10;;;;;;;22.45;51.32;100234.53;4947424;28;20364;-91
2022/08/31 09:32:30;;;;;;;14.00;8.23;;;;;;;22.46;51.02;100233.47;4998709;28;20046;-91
2022/08/31 09:35:01;;;;;;;13.25;8.50;;;;;;;22.55;50.87;100240.38;4964889;28;20042;-91
2022/08/31 09:37:36;;;;;;;12.40;8.32;;;;;;;22.61;50.95;100241.44;4964406;28;20433;-90
2022/08/31 09:40:35;;;;;;;13.10;8.05;;;;;;;22.48;50.94;100242.22;4968535;28;20500;-91
2022/08/31 09:43:04;;;;;;;13.80;8.48;;;;;;;22.64;50.56;100236.44;4958909;28;20042;-91
2022/08/31 09:45:35;;;;;;;13.32;8.60;;;;;;;22.71;50.02;100233.75;4981763;28;20066;-92
2022/08/31 09:48:08;;;;;;;10.82;8.23;;;;;;;22.69;50.43;100231.22;4941929;28;20047;-89
2022/08/31 09:50:46;;;;;;;14.82;8.57;;;;;;;22.72;50.23;100233.56;4947013;28;20051;-90
2022/08/31 09:56:12;;;;;;;13.55;8.43;;;;;;;22.73;50.59;100232.50;4981954;28;20057;-91
2022/08/31 09:58:41;;;;;;;14.73;8.63;;;;;;;22.81;50.27;100234.19;4961443;28;20403;-91
2022/08/31 10:01:18;;;;;;;17.10;8.02;;;;;;;22.74;50.50;100233.34;4967581;28;20137;-92
2022/08/31 10:03:46;;;;;;;13.57;8.38;;;;;;;22.81;50.09;100231.47;4981736;28;20502;-91
2022/08/31 10:06:29;;;;;;;16.42;7.97;;;;;;;22.77;49.52;100222.13;4960760;28;20096;-91
2022/08/31 10:08:57;;;;;;;9.82;7.40;;;;;;;22.89;50.03;100231.28;4960439;28;20046;-91
2022/08/31 10:11:28;;;;;;;10.90;8.32;;;;;;;22.92;50.17;100228.16;4981707;28;20049;-90
2022/08/31 10:14:08;;;;;;;12.32;8.07;;;;;;;22.94;49.60;100230.66;4983602;28;20053;-91
2022/08/31 10:16:35;;;;;;;10.63;7.40;;;;;;;23.05;49.65;100227.38;4958557;28;20062;-91
2022/08/31 10:19:15;;;;;;;13.95;8.35;;;;;;;22.99;49.55;100224.66;4966492;28;20405;-90
2022/08/31 10:21:55;;;;;;;11.20;7.95;;;;;;;22.98;49.77;100229.25;4997325;28;20054;-90
2022/08/31 10:24:28;;;;;;;12.02;8.15;;;;;;;23.10;49.26;100230.28;4960584;28;20050;-91
2022/08/31 10:27:07;;;;;;;14.55;8.57;;;;;;;23.03;49.20;100229.47;4963997;28;20046;-90
2022/08/31 10:29:42;;;;;;;10.48;7.15;;;;;;;23.10;49.23;100221.31;4998266;28;20057;-89
2022/08/31 10:32:32;;;;;;;14.27;8.10;;;;;;;23.06;48.90;100217.38;4967549;28;20042;-90
2022/08/31 10:35:10;;;;;;;14.40;8.10;;;;;;;23.13;49.22;100223.63;4986103;28;20095;-91
2022/08/31 10:37:48;;;;;;;11.13;7.40;;;;;;;23.19;48.84;100220.91;4978881;28;20042;-91
2022/08/31 10:40:19;;;;;;;13.48;7.93;;;;;;;23.30;49.21;100219.44;4950864;28;20046;-90
2022/08/31 10:42:58;;;;;;;13.48;6.97;;;;;;;23.27;48.83;100216.31;4979312;28;20039;-90
2022/08/31 10:45:28;;;;;;;14.27;8.00;;;;;;;23.33;48.48;100215.47;4957071;28;21526;-90
2022/08/31 10:47:56;;;;;;;10.27;7.97;;;;;;;23.39;48.64;100209.22;4962630;28;20042;-90
2022/08/31 10:50:32;;;;;;;15.15;8.38;;;;;;;23.36;48.31;100212.38;4948883;28;20047;-91
2022/08/31 10:53:16;;;;;;;10.98;7.60;;;;;;;23.46;48.60;100209.19;4963943;28;20129;-91
2022/08/31 10:55:54;;;;;;;11.68;7.85;;;;;;;23.56;48.21;100215.88;4997336;28;20522;-92
2022/08/31 10:58:40;;;;;;;12.45;7.65;;;;;;;23.60;47.94;100211.69;4931469;28;20074;-90
2022/08/31 11:01:15;;;;;;;16.08;8.23;;;;;;;23.61;47.24;100210.66;4949272;28;20110;-91
2022/08/31 11:04:00;;;;;;;15.30;8.30;;;;;;;23.65;47.83;100204.78;4982009;28;20046;-90
2022/08/31 11:07:02;;;;;;;11.27;8.00;;;;;;;23.44;47.84;100201.28;4996115;28;20054;-91
2022/08/31 11:10:08;;;;;;;14.45;8.40;;;;;;;23.48;47.14;100202.53;4891906;28;20121;-90
2022/08/31 11:12:42;;;;;;;13.27;7.68;;;;;;;23.56;46.90;100199.59;4916167;28;20502;-90
2022/08/31 11:15:38;;;;;;;14.85;7.40;;;;;;;23.55;47.00;100208.75;4904275;28;20050;-90
2022/08/31 11:18:21;;;;;;;13.00;7.65;;;;;;;23.57;46.89;100203.16;4943915;28;20601;-90
2022/08/31 11:21:07;;;;;;;15.13;8.23;;;;;;;23.54;46.94;100200.88;4959111;28;20046;-90
2022/08/31 11:23:47;;;;;;;9.05;7.00;;;;;;;23.61;45.90;100205.22;4971187;28;20593;-90
2022/08/31 11:26:25;;;;;;;11.15;7.70;;;;;;;23.69;46.33;100204.16;4974274;28;20098;-91
2022/08/31 11:29:17;;;;;;;14.10;8.20;;;;;;;23.55;45.75;100191.69;4961356;28;20047;-90
2022/08/31 11:31:45;;;;;;;15.13;8.18;;;;;;;23.74;46.12;100190.00;4929341;28;20415;-90
2022/08/31 11:34:27;;;;;;;14.70;7.88;;;;;;;23.63;46.10;100194.16;4955574;28;20074;-89
2022/08/31 11:36:56;;;;;;;11.77;7.45;;;;;;;23.47;46.39;100191.91;4940026;28;20051;-90
2022/08/31 11:39:44;;;;;;;11.38;7.45;;;;;;;23.60;46.49;100197.28;4957247;28;21431;-90
2022/08/31 11:42:12;;;;;;;14.70;8.30;;;;;;;23.53;46.51;100201.88;4930293;28;20050;-91
2022/08/31 11:44:40;;;;;;;15.10;7.82;;;;;;;23.61;46.61;100188.97;4910229;28;20511;-90
2022/08/31 11:47:27;;;;;;;9.60;7.47;;;;;;;23.71;46.29;100185.81;4980056;28;20046;-90
2022/08/31 11:49:56;;;;;;;12.13;7.78;;;;;;;23.80;46.39;100179.13;4985781;28;20050;-90
2022/08/31 11:52:23;;;;;;;10.98;7.15;;;;;;;23.85;46.01;100175.78;4983368;28;20050;-91
2022/08/31 11:54:51;;;;;;;12.70;7.85;;;;;;;23.91;46.06;100176.78;4954649;28;20038;-91
2022/08/31 11:57:24;;;;;;;12.88;8.07;;;;;;;23.85;45.25;100174.94;4968300;28;20050;-89
2022/08/31 11:59:52;;;;;;;13.23;7.45;;;;;;;23.83;45.36;100175.16;4953959;28;20103;-90
2022/08/31 12:02:18;;;;;;;20.92;8.45;;;;;;;23.74;45.36;100163.72;5000634;28;20522;-90
2022/08/31 12:04:50;;;;;;;11.32;7.93;;;;;;;23.85;45.57;100159.50;4969403;28;20053;-91
2022/08/31 12:07:28;;;;;;;12.30;8.00;;;;;;;23.85;45.10;100161.38;4984583;28;20039;-90
2022/08/31 12:10:02;;;;;;;15.30;8.38;;;;;;;23.82;44.30;100168.91;4984208;28;20429;-91
2022/08/31 12:12:50;;;;;;;10.48;7.53;;;;;;;23.95;44.56;100159.88;4974338;28;20045;-91
2022/08/31 12:15:25;;;;;;;13.77;8.50;;;;;;;24.03;44.72;100153.38;4988259;28;21343;-90
2022/08/31 12:18:32;;;;;;;11.15;7.68;;;;;;;24.06;45.17;100169.22;4978794;28;20462;-90
2022/08/31 12:25:05;;;;;;;11.60;7.40;;;;;;;24.11;44.38;100153.09;4926199;28;20054;-90
2022/08/31 12:27:48;;;;;;;13.88;8.27;;;;;;;24.14;43.25;100151.84;4900629;28;20410;-90
2022/08/31 12:30:21;;;;;;;13.75;7.45;;;;;;;24.09;42.85;100154.38;4929998;28;20058;-90
2022/08/31 12:33:09;;;;;;;15.55;8.52;;;;;;;24.07;43.11;100164.59;4968964;28;20442;-90
2022/08/31 12:35:36;;;;;;;11.73;7.32;;;;;;;24.13;43.81;100164.59;4995987;28;20050;-90
2022/08/31 12:38:05;;;;;;;7.75;6.43;;;;;;;24.18;44.10;100163.94;4966683;28;20049;-90
2022/08/31 12:40:56;;;;;;;10.38;6.18;;;;;;;24.12;42.90;100154.78;4948821;28;20789;-90
2022/08/31 12:43:37;;;;;;;12.43;7.07;;;;;;;24.17;43.54;100152.25;4994735;28;20058;-91
2022/08/31 12:46:18;;;;;;;11.75;7.03;;;;;;;24.20;43.36;100153.72;4956274;28;20047;-90
2022/08/31 12:49:08;;;;;;;10.13;6.80;;;;;;;24.18;43.20;100151.19;4965082;28;20034;-90
2022/08/31 12:51:45;;;;;;;10.43;7.68;;;;;;;24.22;42.85;100147.00;4943658;28;20109;-90
2022/08/31 12:54:15;;;;;;;11.18;7.15;;;;;;;24.21;43.07;100158.91;4983981;28;20478;-91
2022/08/31 12:56:58;;;;;;;12.27;7.18;;;;;;;24.14;42.34;100152.66;4965849;28;20058;-91
2022/08/31 12:59:30;;;;;;;11.77;7.93;;;;;;;24.20;42.62;100145.56;4981709;28;20053;-90